sensor_id;sensor_type;location;lat;lon;timestamp;P1;durP1;ratioP1;P2;durP2;ratioP2
68126;SDS011;54931;52.098;21.006;2023-02-04T00:00:28;33.80;;;14.20;;
68126;SDS011;54931;52.098;21.006;2023-02-04T00:03:17;27.90;;;11.80;;
68126;SDS011;54931;52.098;21.006;2023-02-04T00:05:45;22.90;;;8.20;;
68126;SDS011;54931;52.098;21.006;2023-02-04T00:08:12;25.10;;;11.20;;
68126;SDS011;54931;52.098;21.006;2023-02-04T00:10:42;13.70;;;6.90;;
68126;SDS011;54931;52.098;21.006;2023-02-04T00:13:10;22.60;;;9.90;;
68126;SDS011;54931;52.098;21.006;2023-02-04T00:15:38;20.10;;;9.90;;
68126;SDS011;54931;52.098;21.006;2023-02-04T00:18:06;24.70;;;10.30;;
68126;SDS011;54931;52.098;21.006;2023-02-04T00:20:34;19.70;;;8.40;;
68126;SDS011;54931;52.098;21.006;2023-02-04T00:23:02;23.70;;;9.90;;
68126;SDS011;54931;52.098;21.006;2023-02-04T00:25:30;26.40;;;11.70;;
68126;SDS011;54931;52.098;21.006;2023-02-04T00:27:58;28.60;;;11.80;;
68126;SDS011;54931;52.098;21.006;2023-02-04T00:30:26;25.20;;;9.90;;
68126;SDS011;54931;52.098;21.006;2023-02-04T00:32:54;26.90;;;12.30;;
68126;SDS011;54931;52.098;21.006;2023-02-04T00:35:23;16.50;;;8.20;;
68126;SDS011;54931;52.098;21.006;2023-02-04T00:37:51;16.80;;;7.50;;
68126;SDS011;54931;52.098;21.006;2023-02-04T00:40:20;18.20;;;7.40;;
68126;SDS011;54931;52.098;21.006;2023-02-04T00:42:47;19.50;;;9.50;;
68126;SDS011;54931;52.098;21.006;2023-02-04T00:45:15;24.40;;;13.20;;
68126;SDS011;54931;52.098;21.006;2023-02-04T00:47:43;14.20;;;7.60;;
68126;SDS011;54931;52.098;21.006;2023-02-04T00:50:11;26.40;;;11.10;;
68126;SDS011;54931;52.098;21.006;2023-02-04T00:52:39;24.90;;;10.00;;
68126;SDS011;54931;52.098;21.006;2023-02-04T00:55:07;15.90;;;7.50;;
68126;SDS011;54931;52.098;21.006;2023-02-04T00:57:37;24.40;;;12.60;;
68126;SDS011;54931;52.098;21.006;2023-02-04T01:00:05;24.90;;;10.10;;
68126;SDS011;54931;52.098;21.006;2023-02-04T01:02:34;28.70;;;11.20;;
68126;SDS011;54931;52.098;21.006;2023-02-04T01:05:02;21.80;;;8.60;;
68126;SDS011;54931;52.098;21.006;2023-02-04T01:07:30;26.10;;;10.90;;
68126;SDS011;54931;52.098;21.006;2023-02-04T01:09:58;20.80;;;10.20;;
68126;SDS011;54931;52.098;21.006;2023-02-04T01:12:26;19.40;;;10.70;;
68126;SDS011;54931;52.098;21.006;2023-02-04T01:14:55;19.00;;;9.00;;
68126;SDS011;54931;52.098;21.006;2023-02-04T01:17:22;15.60;;;7.80;;
68126;SDS011;54931;52.098;21.006;2023-02-04T01:19:50;19.30;;;8.60;;
68126;SDS011;54931;52.098;21.006;2023-02-04T01:22:18;30.00;;;10.60;;
68126;SDS011;54931;52.098;21.006;2023-02-04T01:24:45;26.90;;;11.50;;
68126;SDS011;54931;52.098;21.006;2023-02-04T01:27:13;18.80;;;8.80;;
68126;SDS011;54931;52.098;21.006;2023-02-04T01:29:42;17.10;;;8.70;;
68126;SDS011;54931;52.098;21.006;2023-02-04T01:32:09;17.10;;;8.20;;
68126;SDS011;54931;52.098;21.006;2023-02-04T01:34:37;26.10;;;11.20;;
68126;SDS011;54931;52.098;21.006;2023-02-04T01:37:05;13.80;;;6.70;;
68126;SDS011;54931;52.098;21.006;2023-02-04T01:39:33;17.70;;;8.80;;
68126;SDS011;54931;52.098;21.006;2023-02-04T01:42:02;24.30;;;11.60;;
68126;SDS011;54931;52.098;21.006;2023-02-04T01:44:30;12.50;;;5.60;;
68126;SDS011;54931;52.098;21.006;2023-02-04T01:46:58;22.90;;;9.50;;
68126;SDS011;54931;52.098;21.006;2023-02-04T01:49:27;29.00;;;10.60;;
68126;SDS011;54931;52.098;21.006;2023-02-04T01:51:56;17.90;;;8.20;;
68126;SDS011;54931;52.098;21.006;2023-02-04T01:54:25;16.40;;;8.80;;
68126;SDS011;54931;52.098;21.006;2023-02-04T01:56:53;12.90;;;6.30;;
68126;SDS011;54931;52.098;21.006;2023-02-04T01:59:22;19.70;;;8.60;;
68126;SDS011;54931;52.098;21.006;2023-02-04T02:01:51;10.60;;;5.20;;
68126;SDS011;54931;52.098;21.006;2023-02-04T02:04:31;14.50;;;6.20;;
68126;SDS011;54931;52.098;21.006;2023-02-04T02:07:02;18.60;;;9.90;;
68126;SDS011;54931;52.098;21.006;2023-02-04T02:09:32;12.40;;;6.30;;
68126;SDS011;54931;52.098;21.006;2023-02-04T02:12:01;14.40;;;6.40;;
68126;SDS011;54931;52.098;21.006;2023-02-04T02:14:30;16.80;;;7.20;;
68126;SDS011;54931;52.098;21.006;2023-02-04T02:16:58;13.60;;;7.00;;
68126;SDS011;54931;52.098;21.006;2023-02-04T02:19:29;18.40;;;8.80;;
68126;SDS011;54931;52.098;21.006;2023-02-04T02:22:06;20.50;;;8.50;;
68126;SDS011;54931;52.098;21.006;2023-02-04T02:24:39;13.70;;;6.80;;
68126;SDS011;54931;52.098;21.006;2023-02-04T02:27:09;17.40;;;7.60;;
68126;SDS011;54931;52.098;21.006;2023-02-04T02:29:39;17.50;;;7.90;;
68126;SDS011;54931;52.098;21.006;2023-02-04T02:32:09;19.50;;;9.40;;
68126;SDS011;54931;52.098;21.006;2023-02-04T02:34:40;20.50;;;10.10;;
68126;SDS011;54931;52.098;21.006;2023-02-04T02:37:09;13.10;;;5.60;;
68126;SDS011;54931;52.098;21.006;2023-02-04T02:39:38;20.50;;;8.10;;
68126;SDS011;54931;52.098;21.006;2023-02-04T02:42:11;27.30;;;10.40;;
68126;SDS011;54931;52.098;21.006;2023-02-04T02:44:44;24.10;;;10.20;;
68126;SDS011;54931;52.098;21.006;2023-02-04T02:47:20;13.40;;;6.10;;
68126;SDS011;54931;52.098;21.006;2023-02-04T02:49:50;21.60;;;8.80;;
68126;SDS011;54931;52.098;21.006;2023-02-04T02:52:20;20.60;;;8.60;;
68126;SDS011;54931;52.098;21.006;2023-02-04T02:54:49;29.40;;;11.90;;
68126;SDS011;54931;52.098;21.006;2023-02-04T02:57:21;22.70;;;9.60;;
68126;SDS011;54931;52.098;21.006;2023-02-04T02:59:50;24.50;;;8.50;;
68126;SDS011;54931;52.098;21.006;2023-02-04T03:02:21;26.80;;;10.30;;
68126;SDS011;54931;52.098;21.006;2023-02-04T03:04:54;24.60;;;10.90;;
68126;SDS011;54931;52.098;21.006;2023-02-04T03:07:24;21.80;;;9.10;;
68126;SDS011;54931;52.098;21.006;2023-02-04T03:09:52;15.20;;;7.10;;
68126;SDS011;54931;52.098;21.006;2023-02-04T03:12:20;17.10;;;7.20;;
68126;SDS011;54931;52.098;21.006;2023-02-04T03:14:48;17.30;;;7.50;;
68126;SDS011;54931;52.098;21.006;2023-02-04T03:17:16;13.20;;;6.80;;
68126;SDS011;54931;52.098;21.006;2023-02-04T03:19:44;17.60;;;7.90;;
68126;SDS011;54931;52.098;21.006;2023-02-04T03:22:13;15.80;;;7.40;;
68126;SDS011;54931;52.098;21.006;2023-02-04T03:24:41;15.20;;;8.20;;
68126;SDS011;54931;52.098;21.006;2023-02-04T03:27:08;20.40;;;8.20;;
68126;SDS011;54931;52.098;21.006;2023-02-04T03:29:42;21.30;;;8.30;;
68126;SDS011;54931;52.098;21.006;2023-02-04T03:32:11;16.10;;;7.10;;
68126;SDS011;54931;52.098;21.006;2023-02-04T03:34:39;19.30;;;8.50;;
68126;SDS011;54931;52.098;21.006;2023-02-04T03:37:07;17.40;;;8.80;;
68126;SDS011;54931;52.098;21.006;2023-02-04T03:39:35;16.80;;;7.20;;
68126;SDS011;54931;52.098;21.006;2023-02-04T03:42:03;20.80;;;9.40;;
68126;SDS011;54931;52.098;21.006;2023-02-04T03:44:31;25.40;;;8.90;;
68126;SDS011;54931;52.098;21.006;2023-02-04T03:46:58;19.40;;;8.90;;
68126;SDS011;54931;52.098;21.006;2023-02-04T03:49:26;16.40;;;7.80;;
68126;SDS011;54931;52.098;21.006;2023-02-04T03:51:54;22.00;;;9.20;;
68126;SDS011;54931;52.098;21.006;2023-02-04T03:54:22;16.90;;;6.90;;
68126;SDS011;54931;52.098;21.006;2023-02-04T03:56:50;25.00;;;9.20;;
68126;SDS011;54931;52.098;21.006;2023-02-04T03:59:18;16.10;;;8.30;;
68126;SDS011;54931;52.098;21.006;2023-02-04T04:01:46;16.50;;;7.40;;
68126;SDS011;54931;52.098;21.006;2023-02-04T04:04:14;17.80;;;7.50;;
68126;SDS011;54931;52.098;21.006;2023-02-04T04:06:42;16.80;;;7.50;;
68126;SDS011;54931;52.098;21.006;2023-02-04T04:09:09;13.00;;;6.60;;
68126;SDS011;54931;52.098;21.006;2023-02-04T04:11:37;21.50;;;7.90;;
68126;SDS011;54931;52.098;21.006;2023-02-04T04:14:05;15.70;;;6.90;;
68126;SDS011;54931;52.098;21.006;2023-02-04T04:16:33;15.60;;;8.20;;
68126;SDS011;54931;52.098;21.006;2023-02-04T04:19:00;19.00;;;7.50;;
68126;SDS011;54931;52.098;21.006;2023-02-04T04:21:28;22.50;;;8.80;;
68126;SDS011;54931;52.098;21.006;2023-02-04T04:23:56;16.60;;;8.20;;
68126;SDS011;54931;52.098;21.006;2023-02-04T04:26:24;14.30;;;6.30;;
68126;SDS011;54931;52.098;21.006;2023-02-04T04:28:52;14.70;;;7.70;;
68126;SDS011;54931;52.098;21.006;2023-02-04T04:31:20;18.40;;;8.30;;
68126;SDS011;54931;52.098;21.006;2023-02-04T04:33:48;18.50;;;8.40;;
68126;SDS011;54931;52.098;21.006;2023-02-04T04:36:15;18.70;;;7.40;;
68126;SDS011;54931;52.098;21.006;2023-02-04T04:38:43;14.60;;;7.20;;
68126;SDS011;54931;52.098;21.006;2023-02-04T04:41:12;13.70;;;6.30;;
68126;SDS011;54931;52.098;21.006;2023-02-04T04:43:40;15.50;;;7.80;;
68126;SDS011;54931;52.098;21.006;2023-02-04T04:46:07;16.70;;;6.00;;
68126;SDS011;54931;52.098;21.006;2023-02-04T04:48:36;13.80;;;6.00;;
68126;SDS011;54931;52.098;21.006;2023-02-04T04:51:04;18.70;;;7.60;;
68126;SDS011;54931;52.098;21.006;2023-02-04T04:53:32;17.40;;;7.30;;
68126;SDS011;54931;52.098;21.006;2023-02-04T04:55:59;11.50;;;5.70;;
68126;SDS011;54931;52.098;21.006;2023-02-04T04:58:28;14.90;;;7.00;;
68126;SDS011;54931;52.098;21.006;2023-02-04T05:00:55;19.10;;;8.00;;
68126;SDS011;54931;52.098;21.006;2023-02-04T05:03:23;12.40;;;6.50;;
68126;SDS011;54931;52.098;21.006;2023-02-04T05:05:50;15.20;;;7.30;;
68126;SDS011;54931;52.098;21.006;2023-02-04T05:08:18;15.20;;;7.90;;
68126;SDS011;54931;52.098;21.006;2023-02-04T05:10:47;13.70;;;6.60;;
68126;SDS011;54931;52.098;21.006;2023-02-04T05:13:15;15.90;;;7.90;;
68126;SDS011;54931;52.098;21.006;2023-02-04T05:15:42;10.10;;;4.90;;
68126;SDS011;54931;52.098;21.006;2023-02-04T05:18:10;13.50;;;6.90;;
68126;SDS011;54931;52.098;21.006;2023-02-04T05:20:38;16.60;;;7.40;;
68126;SDS011;54931;52.098;21.006;2023-02-04T05:23:05;16.10;;;7.20;;
68126;SDS011;54931;52.098;21.006;2023-02-04T05:25:33;17.20;;;7.70;;
68126;SDS011;54931;52.098;21.006;2023-02-04T05:28:02;12.90;;;6.50;;
68126;SDS011;54931;52.098;21.006;2023-02-04T05:30:30;18.30;;;7.40;;
68126;SDS011;54931;52.098;21.006;2023-02-04T05:32:57;16.10;;;6.60;;
68126;SDS011;54931;52.098;21.006;2023-02-04T05:35:25;17.80;;;9.10;;
68126;SDS011;54931;52.098;21.006;2023-02-04T05:37:53;17.20;;;7.70;;
68126;SDS011;54931;52.098;21.006;2023-02-04T05:40:20;16.50;;;7.10;;
68126;SDS011;54931;52.098;21.006;2023-02-04T05:42:49;13.30;;;6.50;;
68126;SDS011;54931;52.098;21.006;2023-02-04T05:45:16;16.70;;;6.70;;
68126;SDS011;54931;52.098;21.006;2023-02-04T05:47:45;16.50;;;7.00;;
68126;SDS011;54931;52.098;21.006;2023-02-04T05:50:14;13.90;;;7.20;;
68126;SDS011;54931;52.098;21.006;2023-02-04T05:52:42;16.00;;;6.60;;
68126;SDS011;54931;52.098;21.006;2023-02-04T05:55:11;17.10;;;7.00;;
68126;SDS011;54931;52.098;21.006;2023-02-04T05:57:39;14.60;;;5.60;;
68126;SDS011;54931;52.098;21.006;2023-02-04T06:00:08;17.40;;;7.20;;
68126;SDS011;54931;52.098;21.006;2023-02-04T06:02:37;16.50;;;6.90;;
68126;SDS011;54931;52.098;21.006;2023-02-04T06:05:06;13.30;;;6.20;;
68126;SDS011;54931;52.098;21.006;2023-02-04T06:07:34;12.70;;;6.70;;
68126;SDS011;54931;52.098;21.006;2023-02-04T06:10:01;14.80;;;6.70;;
68126;SDS011;54931;52.098;21.006;2023-02-04T06:12:30;13.20;;;6.30;;
68126;SDS011;54931;52.098;21.006;2023-02-04T06:14:59;13.90;;;5.60;;
68126;SDS011;54931;52.098;21.006;2023-02-04T06:17:26;15.90;;;6.00;;
68126;SDS011;54931;52.098;21.006;2023-02-04T06:19:54;10.50;;;5.20;;
68126;SDS011;54931;52.098;21.006;2023-02-04T06:22:22;12.80;;;6.60;;
68126;SDS011;54931;52.098;21.006;2023-02-04T06:24:52;12.70;;;6.40;;
68126;SDS011;54931;52.098;21.006;2023-02-04T06:27:19;11.80;;;5.30;;
68126;SDS011;54931;52.098;21.006;2023-02-04T06:29:51;14.30;;;6.20;;
68126;SDS011;54931;52.098;21.006;2023-02-04T06:32:20;12.70;;;5.30;;
68126;SDS011;54931;52.098;21.006;2023-02-04T06:34:49;15.90;;;6.70;;
68126;SDS011;54931;52.098;21.006;2023-02-04T06:37:16;13.60;;;6.50;;
68126;SDS011;54931;52.098;21.006;2023-02-04T06:39:44;13.00;;;7.10;;
68126;SDS011;54931;52.098;21.006;2023-02-04T06:42:12;14.30;;;7.50;;
68126;SDS011;54931;52.098;21.006;2023-02-04T06:44:40;20.50;;;8.10;;
68126;SDS011;54931;52.098;21.006;2023-02-04T06:47:07;17.10;;;7.90;;
68126;SDS011;54931;52.098;21.006;2023-02-04T06:49:35;16.70;;;8.20;;
68126;SDS011;54931;52.098;21.006;2023-02-04T06:52:03;16.80;;;8.40;;
68126;SDS011;54931;52.098;21.006;2023-02-04T06:54:31;15.00;;;6.40;;
68126;SDS011;54931;52.098;21.006;2023-02-04T06:57:00;16.40;;;8.20;;
68126;SDS011;54931;52.098;21.006;2023-02-04T06:59:34;16.50;;;6.90;;
68126;SDS011;54931;52.098;21.006;2023-02-04T07:02:04;13.50;;;6.30;;
68126;SDS011;54931;52.098;21.006;2023-02-04T07:04:33;13.60;;;6.20;;
68126;SDS011;54931;52.098;21.006;2023-02-04T07:07:01;15.00;;;6.40;;
68126;SDS011;54931;52.098;21.006;2023-02-04T07:09:29;12.90;;;7.60;;
68126;SDS011;54931;52.098;21.006;2023-02-04T07:11:57;15.30;;;7.50;;
68126;SDS011;54931;52.098;21.006;2023-02-04T07:14:24;14.50;;;7.50;;
68126;SDS011;54931;52.098;21.006;2023-02-04T07:16:52;10.90;;;6.40;;
68126;SDS011;54931;52.098;21.006;2023-02-04T07:19:20;14.60;;;7.10;;
68126;SDS011;54931;52.098;21.006;2023-02-04T07:21:48;13.50;;;7.40;;
68126;SDS011;54931;52.098;21.006;2023-02-04T07:24:20;12.10;;;6.50;;
68126;SDS011;54931;52.098;21.006;2023-02-04T07:26:48;14.10;;;7.20;;
68126;SDS011;54931;52.098;21.006;2023-02-04T07:29:16;16.30;;;7.40;;
68126;SDS011;54931;52.098;21.006;2023-02-04T07:31:47;16.00;;;8.50;;
68126;SDS011;54931;52.098;21.006;2023-02-04T07:34:17;13.20;;;6.90;;
68126;SDS011;54931;52.098;21.006;2023-02-04T07:36:45;14.80;;;6.80;;
68126;SDS011;54931;52.098;21.006;2023-02-04T07:39:13;14.40;;;7.30;;
68126;SDS011;54931;52.098;21.006;2023-02-04T07:41:41;14.30;;;7.00;;
68126;SDS011;54931;52.098;21.006;2023-02-04T07:44:09;12.70;;;6.80;;
68126;SDS011;54931;52.098;21.006;2023-02-04T07:46:37;16.90;;;8.10;;
68126;SDS011;54931;52.098;21.006;2023-02-04T07:49:05;12.60;;;6.10;;
68126;SDS011;54931;52.098;21.006;2023-02-04T07:51:33;11.40;;;5.90;;
68126;SDS011;54931;52.098;21.006;2023-02-04T07:54:01;18.20;;;6.20;;
68126;SDS011;54931;52.098;21.006;2023-02-04T07:56:29;12.70;;;6.10;;
68126;SDS011;54931;52.098;21.006;2023-02-04T07:58:57;11.30;;;6.60;;
68126;SDS011;54931;52.098;21.006;2023-02-04T08:01:25;9.40;;;5.00;;
68126;SDS011;54931;52.098;21.006;2023-02-04T08:03:53;11.50;;;5.70;;
68126;SDS011;54931;52.098;21.006;2023-02-04T08:06:21;6.80;;;3.60;;
68126;SDS011;54931;52.098;21.006;2023-02-04T08:08:49;8.20;;;4.20;;
68126;SDS011;54931;52.098;21.006;2023-02-04T08:11:16;8.40;;;3.80;;
68126;SDS011;54931;52.098;21.006;2023-02-04T08:13:44;10.50;;;3.80;;
68126;SDS011;54931;52.098;21.006;2023-02-04T08:16:12;6.90;;;3.50;;
68126;SDS011;54931;52.098;21.006;2023-02-04T08:18:39;8.60;;;4.00;;
68126;SDS011;54931;52.098;21.006;2023-02-04T08:21:07;7.40;;;3.50;;
68126;SDS011;54931;52.098;21.006;2023-02-04T08:23:35;6.80;;;3.40;;
68126;SDS011;54931;52.098;21.006;2023-02-04T08:26:09;8.60;;;3.60;;
68126;SDS011;54931;52.098;21.006;2023-02-04T08:28:38;6.00;;;2.60;;
68126;SDS011;54931;52.098;21.006;2023-02-04T08:31:06;6.10;;;3.50;;
68126;SDS011;54931;52.098;21.006;2023-02-04T08:33:38;5.40;;;2.90;;
68126;SDS011;54931;52.098;21.006;2023-02-04T08:36:06;7.90;;;4.00;;
68126;SDS011;54931;52.098;21.006;2023-02-04T08:38:34;7.10;;;3.60;;
68126;SDS011;54931;52.098;21.006;2023-02-04T08:41:03;6.70;;;3.10;;
68126;SDS011;54931;52.098;21.006;2023-02-04T08:43:31;6.10;;;2.70;;
68126;SDS011;54931;52.098;21.006;2023-02-04T08:45:58;5.90;;;2.80;;
68126;SDS011;54931;52.098;21.006;2023-02-04T08:48:26;6.90;;;2.80;;
68126;SDS011;54931;52.098;21.006;2023-02-04T08:50:54;6.60;;;3.50;;
68126;SDS011;54931;52.098;21.006;2023-02-04T08:53:22;7.50;;;3.30;;
68126;SDS011;54931;52.098;21.006;2023-02-04T08:55:50;8.10;;;3.30;;
68126;SDS011;54931;52.098;21.006;2023-02-04T08:58:18;8.00;;;3.50;;
68126;SDS011;54931;52.098;21.006;2023-02-04T09:00:46;7.20;;;3.60;;
68126;SDS011;54931;52.098;21.006;2023-02-04T09:03:14;6.10;;;3.70;;
68126;SDS011;54931;52.098;21.006;2023-02-04T09:05:43;6.30;;;3.00;;
68126;SDS011;54931;52.098;21.006;2023-02-04T09:08:11;5.80;;;3.00;;
68126;SDS011;54931;52.098;21.006;2023-02-04T09:10:39;6.40;;;3.00;;
68126;SDS011;54931;52.098;21.006;2023-02-04T09:13:07;5.30;;;2.70;;
68126;SDS011;54931;52.098;21.006;2023-02-04T09:15:38;4.10;;;2.50;;
68126;SDS011;54931;52.098;21.006;2023-02-04T09:18:07;4.00;;;1.90;;
68126;SDS011;54931;52.098;21.006;2023-02-04T09:20:47;5.30;;;2.50;;
68126;SDS011;54931;52.098;21.006;2023-02-04T09:23:15;4.90;;;2.50;;
68126;SDS011;54931;52.098;21.006;2023-02-04T09:25:44;4.30;;;2.20;;
68126;SDS011;54931;52.098;21.006;2023-02-04T09:28:13;3.10;;;2.00;;
68126;SDS011;54931;52.098;21.006;2023-02-04T09:30:45;5.10;;;2.40;;
68126;SDS011;54931;52.098;21.006;2023-02-04T09:33:14;4.30;;;2.40;;
68126;SDS011;54931;52.098;21.006;2023-02-04T09:35:45;4.20;;;1.80;;
68126;SDS011;54931;52.098;21.006;2023-02-04T09:38:13;3.20;;;2.00;;
68126;SDS011;54931;52.098;21.006;2023-02-04T09:40:46;5.40;;;3.30;;
68126;SDS011;54931;52.098;21.006;2023-02-04T09:43:32;4.10;;;1.80;;
68126;SDS011;54931;52.098;21.006;2023-02-04T09:46:02;4.10;;;2.00;;
68126;SDS011;54931;52.098;21.006;2023-02-04T09:48:32;4.50;;;2.20;;
68126;SDS011;54931;52.098;21.006;2023-02-04T09:51:05;4.60;;;1.90;;
68126;SDS011;54931;52.098;21.006;2023-02-04T09:53:35;6.00;;;1.80;;
68126;SDS011;54931;52.098;21.006;2023-02-04T09:56:07;4.10;;;1.80;;
68126;SDS011;54931;52.098;21.006;2023-02-04T09:58:36;3.50;;;1.80;;
68126;SDS011;54931;52.098;21.006;2023-02-04T10:01:18;3.20;;;1.80;;
68126;SDS011;54931;52.098;21.006;2023-02-04T10:03:47;4.10;;;1.80;;
68126;SDS011;54931;52.098;21.006;2023-02-04T10:06:19;4.80;;;2.10;;
68126;SDS011;54931;52.098;21.006;2023-02-04T10:08:50;4.00;;;2.10;;
68126;SDS011;54931;52.098;21.006;2023-02-04T10:11:20;4.90;;;2.30;;
68126;SDS011;54931;52.098;21.006;2023-02-04T10:13:52;4.50;;;2.00;;
68126;SDS011;54931;52.098;21.006;2023-02-04T10:16:28;2.80;;;1.70;;
68126;SDS011;54931;52.098;21.006;2023-02-04T10:19:01;3.90;;;2.30;;
68126;SDS011;54931;52.098;21.006;2023-02-04T10:21:33;5.40;;;2.40;;
68126;SDS011;54931;52.098;21.006;2023-02-04T10:24:14;5.20;;;2.60;;
68126;SDS011;54931;52.098;21.006;2023-02-04T10:26:46;4.60;;;2.80;;
68126;SDS011;54931;52.098;21.006;2023-02-04T10:29:20;4.20;;;2.40;;
68126;SDS011;54931;52.098;21.006;2023-02-04T10:31:52;3.70;;;2.20;;
68126;SDS011;54931;52.098;21.006;2023-02-04T10:34:34;4.00;;;2.00;;
68126;SDS011;54931;52.098;21.006;2023-02-04T10:37:20;5.30;;;2.20;;
68126;SDS011;54931;52.098;21.006;2023-02-04T10:39:49;6.10;;;2.80;;
68126;SDS011;54931;52.098;21.006;2023-02-04T10:42:26;4.80;;;2.80;;
68126;SDS011;54931;52.098;21.006;2023-02-04T10:44:55;6.60;;;2.90;;
68126;SDS011;54931;52.098;21.006;2023-02-04T10:47:28;5.20;;;2.70;;
68126;SDS011;54931;52.098;21.006;2023-02-04T10:50:04;6.40;;;3.30;;
68126;SDS011;54931;52.098;21.006;2023-02-04T10:52:45;5.20;;;3.10;;
68126;SDS011;54931;52.098;21.006;2023-02-04T10:55:18;5.20;;;2.80;;
68126;SDS011;54931;52.098;21.006;2023-02-04T10:57:49;5.50;;;2.70;;
68126;SDS011;54931;52.098;21.006;2023-02-04T11:00:24;6.90;;;2.90;;
68126;SDS011;54931;52.098;21.006;2023-02-04T11:02:57;5.80;;;2.80;;
68126;SDS011;54931;52.098;21.006;2023-02-04T11:05:30;4.80;;;2.90;;
68126;SDS011;54931;52.098;21.006;2023-02-04T11:08:01;5.80;;;2.90;;
68126;SDS011;54931;52.098;21.006;2023-02-04T11:10:32;8.10;;;4.10;;
68126;SDS011;54931;52.098;21.006;2023-02-04T11:13:03;8.60;;;3.50;;
68126;SDS011;54931;52.098;21.006;2023-02-04T11:15:47;7.00;;;4.00;;
68126;SDS011;54931;52.098;21.006;2023-02-04T11:20:49;10.30;;;4.40;;
68126;SDS011;54931;52.098;21.006;2023-02-04T11:26:12;12.00;;;4.00;;
68126;SDS011;54931;52.098;21.006;2023-02-04T11:28:49;20.30;;;7.70;;
68126;SDS011;54931;52.098;21.006;2023-02-04T11:31:38;16.60;;;7.90;;
68126;SDS011;54931;52.098;21.006;2023-02-04T11:37:09;11.30;;;5.20;;
68126;SDS011;54931;52.098;21.006;2023-02-04T11:39:45;9.70;;;4.70;;
68126;SDS011;54931;52.098;21.006;2023-02-04T11:42:20;30.00;;;10.30;;
68126;SDS011;54931;52.098;21.006;2023-02-04T11:47:36;17.30;;;6.00;;
68126;SDS011;54931;52.098;21.006;2023-02-04T11:50:22;10.60;;;5.60;;
68126;SDS011;54931;52.098;21.006;2023-02-04T11:52:53;10.10;;;5.00;;
68126;SDS011;54931;52.098;21.006;2023-02-04T11:55:22;9.80;;;4.40;;
68126;SDS011;54931;52.098;21.006;2023-02-04T11:57:53;8.30;;;4.00;;
68126;SDS011;54931;52.098;21.006;2023-02-04T12:00:28;9.70;;;5.10;;
68126;SDS011;54931;52.098;21.006;2023-02-04T12:03:01;11.30;;;6.00;;
68126;SDS011;54931;52.098;21.006;2023-02-04T12:05:42;12.00;;;5.20;;
68126;SDS011;54931;52.098;21.006;2023-02-04T12:08:24;11.00;;;5.90;;
68126;SDS011;54931;52.098;21.006;2023-02-04T12:11:09;9.80;;;5.00;;
68126;SDS011;54931;52.098;21.006;2023-02-04T12:13:51;12.00;;;4.90;;
68126;SDS011;54931;52.098;21.006;2023-02-04T12:16:21;12.00;;;5.20;;
68126;SDS011;54931;52.098;21.006;2023-02-04T12:18:50;9.30;;;4.60;;
68126;SDS011;54931;52.098;21.006;2023-02-04T12:21:18;11.10;;;5.30;;
68126;SDS011;54931;52.098;21.006;2023-02-04T12:23:46;11.80;;;5.50;;
68126;SDS011;54931;52.098;21.006;2023-02-04T12:26:14;10.70;;;5.20;;
68126;SDS011;54931;52.098;21.006;2023-02-04T12:28:43;8.70;;;4.90;;
68126;SDS011;54931;52.098;21.006;2023-02-04T12:31:10;8.50;;;4.40;;
68126;SDS011;54931;52.098;21.006;2023-02-04T12:33:39;9.70;;;5.00;;
68126;SDS011;54931;52.098;21.006;2023-02-04T12:36:08;13.40;;;5.70;;
68126;SDS011;54931;52.098;21.006;2023-02-04T12:38:35;16.00;;;6.40;;
68126;SDS011;54931;52.098;21.006;2023-02-04T12:41:03;16.90;;;6.20;;
68126;SDS011;54931;52.098;21.006;2023-02-04T12:43:31;17.90;;;7.00;;
68126;SDS011;54931;52.098;21.006;2023-02-04T12:45:59;19.20;;;7.60;;
68126;SDS011;54931;52.098;21.006;2023-02-04T12:48:28;18.20;;;7.00;;
68126;SDS011;54931;52.098;21.006;2023-02-04T12:50:55;14.10;;;6.00;;
68126;SDS011;54931;52.098;21.006;2023-02-04T12:53:23;17.10;;;7.20;;
68126;SDS011;54931;52.098;21.006;2023-02-04T12:55:51;13.80;;;6.30;;
68126;SDS011;54931;52.098;21.006;2023-02-04T12:58:19;16.00;;;6.90;;
68126;SDS011;54931;52.098;21.006;2023-02-04T13:00:47;13.80;;;6.80;;
68126;SDS011;54931;52.098;21.006;2023-02-04T13:03:15;18.20;;;7.70;;
68126;SDS011;54931;52.098;21.006;2023-02-04T13:05:43;18.00;;;8.30;;
68126;SDS011;54931;52.098;21.006;2023-02-04T13:08:11;15.50;;;7.10;;
68126;SDS011;54931;52.098;21.006;2023-02-04T13:10:39;17.60;;;8.00;;
68126;SDS011;54931;52.098;21.006;2023-02-04T13:13:07;14.70;;;6.40;;
68126;SDS011;54931;52.098;21.006;2023-02-04T13:15:35;18.40;;;7.50;;
68126;SDS011;54931;52.098;21.006;2023-02-04T13:18:03;17.00;;;7.30;;
68126;SDS011;54931;52.098;21.006;2023-02-04T13:20:31;14.60;;;6.40;;
68126;SDS011;54931;52.098;21.006;2023-02-04T13:22:59;16.90;;;7.40;;
68126;SDS011;54931;52.098;21.006;2023-02-04T13:25:26;17.00;;;6.50;;
68126;SDS011;54931;52.098;21.006;2023-02-04T13:27:54;14.80;;;6.80;;
68126;SDS011;54931;52.098;21.006;2023-02-04T13:30:22;18.20;;;7.00;;
68126;SDS011;54931;52.098;21.006;2023-02-04T13:32:51;16.50;;;6.50;;
68126;SDS011;54931;52.098;21.006;2023-02-04T13:35:19;15.60;;;6.20;;
68126;SDS011;54931;52.098;21.006;2023-02-04T13:37:47;11.00;;;5.30;;
68126;SDS011;54931;52.098;21.006;2023-02-04T13:40:15;9.70;;;5.00;;
68126;SDS011;54931;52.098;21.006;2023-02-04T13:42:43;7.50;;;3.50;;
68126;SDS011;54931;52.098;21.006;2023-02-04T13:45:12;5.90;;;3.10;;
68126;SDS011;54931;52.098;21.006;2023-02-04T13:47:39;6.20;;;2.70;;
68126;SDS011;54931;52.098;21.006;2023-02-04T13:50:08;6.40;;;2.80;;
68126;SDS011;54931;52.098;21.006;2023-02-04T13:52:36;4.80;;;2.50;;
68126;SDS011;54931;52.098;21.006;2023-02-04T13:55:04;4.40;;;2.60;;
68126;SDS011;54931;52.098;21.006;2023-02-04T13:57:33;4.30;;;2.40;;
68126;SDS011;54931;52.098;21.006;2023-02-04T14:00:01;4.30;;;2.40;;
68126;SDS011;54931;52.098;21.006;2023-02-04T14:02:29;8.40;;;2.80;;
68126;SDS011;54931;52.098;21.006;2023-02-04T14:04:57;6.30;;;2.50;;
68126;SDS011;54931;52.098;21.006;2023-02-04T14:07:26;5.50;;;2.90;;
68126;SDS011;54931;52.098;21.006;2023-02-04T14:09:54;5.50;;;2.90;;
68126;SDS011;54931;52.098;21.006;2023-02-04T14:12:22;5.80;;;2.80;;
68126;SDS011;54931;52.098;21.006;2023-02-04T14:14:50;5.50;;;2.90;;
68126;SDS011;54931;52.098;21.006;2023-02-04T14:17:18;4.90;;;2.90;;
68126;SDS011;54931;52.098;21.006;2023-02-04T14:19:46;4.70;;;2.70;;
68126;SDS011;54931;52.098;21.006;2023-02-04T14:22:14;7.00;;;3.10;;
68126;SDS011;54931;52.098;21.006;2023-02-04T14:24:42;4.60;;;3.00;;
68126;SDS011;54931;52.098;21.006;2023-02-04T14:27:10;6.10;;;3.30;;
68126;SDS011;54931;52.098;21.006;2023-02-04T14:29:39;8.90;;;2.90;;
68126;SDS011;54931;52.098;21.006;2023-02-04T14:32:07;6.10;;;2.90;;
68126;SDS011;54931;52.098;21.006;2023-02-04T14:34:34;6.10;;;2.80;;
68126;SDS011;54931;52.098;21.006;2023-02-04T14:37:03;5.80;;;2.70;;
68126;SDS011;54931;52.098;21.006;2023-02-04T14:39:31;5.80;;;2.80;;
68126;SDS011;54931;52.098;21.006;2023-02-04T14:41:58;7.90;;;4.20;;
68126;SDS011;54931;52.098;21.006;2023-02-04T14:44:27;7.60;;;3.20;;
68126;SDS011;54931;52.098;21.006;2023-02-04T14:46:55;10.80;;;5.30;;